createdAt,value
2023-05-21T04:15:25.838Z,12.71
2023-05-21T04:16:25.941Z,12.77
2023-05-21T04:17:25.795Z,12.79
2023-05-21T04:18:25.786Z,12.81
2023-05-21T04:19:26.059Z,12.84
2023-05-21T04:20:25.774Z,12.87
2023-05-21T04:21:25.737Z,12.87
2023-05-21T04:22:25.729Z,12.88
2023-05-21T04:23:25.718Z,12.89
2023-05-21T04:24:25.720Z,12.89
2023-05-21T04:25:25.712Z,12.93
2023-05-21T04:26:25.668Z,12.96
2023-05-21T04:27:25.666Z,12.97
2023-05-21T04:28:25.647Z,12.99
2023-05-21T04:29:25.655Z,13.00
2023-05-21T04:30:25.643Z,13.02
2023-05-21T04:31:25.663Z,13.03
2023-05-21T04:32:25.647Z,13.04
2023-05-21T04:33:25.600Z,13.07
2023-05-21T04:34:25.587Z,13.11
2023-05-21T04:35:25.580Z,13.12
2023-05-21T04:36:25.550Z,13.14
2023-05-21T04:37:25.541Z,13.14
2023-05-21T04:38:25.519Z,13.15
2023-05-21T04:39:25.510Z,13.18
2023-05-21T04:40:25.494Z,13.20
2023-05-21T04:41:25.500Z,13.18
2023-05-21T04:42:25.511Z,13.18
2023-05-21T04:43:25.522Z,13.18
2023-05-21T04:44:25.478Z,13.21
2023-05-21T04:45:25.428Z,13.22
2023-05-21T04:46:25.628Z,13.24
2023-05-21T04:47:25.488Z,13.27
2023-05-21T04:48:25.407Z,13.29
2023-05-21T04:49:25.383Z,13.29
2023-05-21T04:50:25.363Z,13.29
2023-05-21T04:51:25.351Z,13.30
2023-05-21T04:52:25.337Z,13.29
2023-05-21T04:53:25.331Z,13.32
2023-05-21T04:54:25.307Z,13.32
2023-05-21T04:55:25.292Z,13.37
2023-05-21T04:56:25.284Z,13.40
2023-05-21T04:57:25.262Z,13.40
2023-05-21T04:58:25.282Z,13.41
2023-05-21T04:59:25.239Z,13.46
2023-05-21T05:00:25.232Z,13.47
2023-05-21T05:01:25.276Z,13.51
2023-05-21T05:02:25.255Z,13.51
2023-05-21T05:03:25.350Z,13.52
2023-05-21T05:04:25.194Z,13.55
2023-05-21T05:05:25.154Z,13.58
2023-05-21T05:06:25.148Z,13.58
2023-05-21T05:07:25.144Z,13.59
2023-05-21T05:08:25.126Z,13.59
2023-05-21T05:09:25.154Z,13.59
2023-05-21T05:10:25.094Z,13.61
2023-05-21T05:11:25.079Z,13.62
2023-05-21T05:12:25.090Z,13.65
2023-05-21T05:13:25.062Z,13.67
2023-05-21T05:14:25.055Z,13.71
2023-05-21T05:15:25.041Z,13.74
2023-05-21T05:16:25.561Z,13.73
2023-05-21T05:17:25.081Z,13.73
2023-05-21T05:18:24.990Z,13.73
2023-05-21T05:19:25.038Z,13.77
2023-05-21T05:20:24.966Z,13.81
2023-05-21T05:21:24.956Z,13.84
2023-05-21T05:22:24.937Z,13.87
2023-05-21T05:23:24.915Z,13.87
2023-05-21T05:24:24.906Z,13.83
2023-05-21T05:25:24.890Z,13.84
2023-05-21T05:26:24.899Z,13.87
2023-05-21T05:27:24.867Z,13.91
2023-05-21T05:28:24.863Z,13.95
2023-05-21T05:29:24.842Z,13.98
2023-05-21T05:30:24.843Z,14.02
2023-05-21T05:31:24.948Z,14.07
2023-05-21T05:32:24.873Z,14.12
2023-05-21T05:33:24.787Z,14.14
2023-05-21T05:34:24.779Z,14.19
2023-05-21T05:35:24.784Z,14.20
2023-05-21T05:36:24.758Z,14.21
2023-05-21T05:37:24.735Z,14.21
2023-05-21T05:38:24.720Z,14.21
2023-05-21T05:39:24.708Z,14.24
2023-05-21T05:40:24.712Z,14.21
2023-05-21T05:41:24.675Z,14.21
2023-05-21T05:42:24.681Z,14.24
2023-05-21T05:43:24.649Z,14.28
2023-05-21T05:44:24.653Z,14.29
2023-05-21T05:45:24.636Z,14.29
2023-05-21T05:46:24.678Z,14.31
2023-05-21T05:47:24.643Z,14.35
2023-05-21T05:48:24.590Z,14.37
2023-05-21T05:49:24.573Z,14.35
2023-05-21T05:50:24.565Z,14.42
2023-05-21T05:51:24.550Z,14.38
2023-05-21T05:52:24.538Z,14.38
2023-05-21T05:53:24.517Z,14.43
2023-05-21T05:54:24.527Z,14.47
2023-05-21T05:55:24.516Z,14.52
2023-05-21T05:56:24.486Z,14.56
2023-05-21T05:57:24.469Z,14.61
2023-05-21T05:58:24.469Z,14.60
2023-05-21T05:59:24.453Z,14.64
2023-05-21T06:00:24.437Z,14.64
2023-05-21T06:01:24.424Z,14.68
2023-05-21T06:02:24.460Z,14.68
2023-05-21T06:03:24.532Z,14.71
2023-05-21T06:04:24.381Z,14.75
2023-05-21T06:05:24.384Z,14.83
2023-05-21T06:06:24.404Z,14.88
2023-05-21T06:07:24.343Z,14.93
2023-05-21T06:08:24.334Z,14.95
2023-05-21T06:09:24.305Z,14.91
2023-05-21T06:10:24.295Z,14.95
2023-05-21T06:11:24.282Z,14.95
2023-05-21T06:12:24.283Z,15.02
2023-05-21T06:13:24.293Z,15.02
2023-05-21T06:14:24.249Z,15.05
2023-05-21T06:15:24.236Z,15.06
2023-05-21T06:16:24.242Z,15.11
2023-05-21T06:17:24.411Z,15.13
2023-05-21T06:18:24.193Z,15.15
2023-05-21T06:19:24.356Z,15.15
2023-05-21T06:20:24.169Z,15.20
2023-05-21T06:21:24.146Z,15.15
2023-05-21T06:22:25.559Z,15.15
2023-05-21T06:23:24.120Z,15.13
2023-05-21T06:24:24.111Z,15.12
2023-05-21T06:25:24.096Z,15.13
2023-05-21T06:26:24.083Z,15.12
2023-05-21T06:27:24.088Z,15.09
2023-05-21T06:28:24.053Z,15.11
2023-05-21T06:29:24.042Z,15.11
2023-05-21T06:30:24.030Z,15.11
2023-05-21T06:31:24.012Z,15.13
2023-05-21T06:32:24.087Z,15.13
2023-05-21T06:33:24.085Z,15.13
2023-05-21T06:34:23.998Z,15.13
2023-05-21T06:35:23.967Z,15.11
2023-05-21T06:36:23.968Z,15.11
2023-05-21T06:37:26.455Z,15.20
2023-05-21T06:38:23.941Z,15.23
2023-05-21T06:39:23.911Z,15.30
2023-05-21T06:40:23.919Z,15.31
2023-05-21T06:41:23.895Z,15.33
2023-05-21T06:42:23.891Z,15.38
2023-05-21T06:43:23.860Z,15.39
2023-05-21T06:44:23.855Z,15.41
2023-05-21T06:45:23.833Z,15.45
2023-05-21T06:46:23.877Z,15.42
2023-05-21T06:47:23.852Z,15.38
2023-05-21T06:48:23.804Z,15.38
2023-05-21T06:49:23.791Z,15.42
2023-05-21T06:50:23.821Z,15.42
2023-05-21T06:51:23.819Z,15.48
2023-05-21T06:52:23.752Z,15.49
2023-05-21T06:53:23.755Z,15.49
2023-05-21T06:54:26.691Z,15.49
2023-05-21T06:55:23.747Z,15.54
2023-05-21T06:56:23.698Z,15.56
2023-05-21T06:57:23.697Z,15.54
2023-05-21T06:58:23.677Z,15.59
2023-05-21T06:59:23.651Z,15.59
2023-05-21T07:00:23.666Z,15.66
2023-05-21T07:01:23.735Z,15.75
2023-05-21T07:02:23.669Z,15.79
2023-05-21T07:03:23.838Z,15.84
2023-05-21T07:04:23.609Z,15.89
2023-05-21T07:05:23.586Z,15.92
2023-05-21T07:06:23.569Z,15.92
2023-05-21T07:07:23.557Z,15.86
2023-05-21T07:08:30.613Z,15.81
2023-05-21T07:09:23.540Z,15.86
2023-05-21T07:10:23.520Z,15.92
2023-05-21T07:11:23.504Z,16.00
2023-05-21T07:12:23.493Z,16.09
2023-05-21T07:13:23.485Z,16.11
2023-05-21T07:14:23.465Z,16.11
2023-05-21T07:15:23.465Z,16.12
2023-05-21T07:16:23.448Z,16.16
2023-05-21T07:17:23.437Z,16.23
2023-05-21T07:18:23.419Z,16.22
2023-05-21T07:19:23.424Z,16.23
2023-05-21T07:20:23.382Z,16.25
2023-05-21T07:21:23.384Z,16.26
2023-05-21T07:22:23.983Z,16.27
2023-05-21T07:23:23.353Z,16.31
2023-05-21T07:24:23.331Z,16.40
2023-05-21T07:25:23.311Z,16.42
2023-05-21T07:26:23.299Z,16.44
2023-05-21T07:27:25.766Z,16.48
2023-05-21T07:28:23.284Z,16.52
2023-05-21T07:29:23.265Z,16.56
2023-05-21T07:30:23.248Z,16.56
2023-05-21T07:31:23.280Z,16.52
2023-05-21T07:32:23.274Z,16.53
2023-05-21T07:33:23.225Z,16.56
2023-05-21T07:34:23.194Z,16.63
2023-05-21T07:35:23.180Z,16.73
2023-05-21T07:36:23.168Z,16.83
2023-05-21T07:37:23.262Z,16.88
2023-05-21T07:38:23.156Z,16.86
2023-05-21T07:39:23.209Z,16.83
2023-05-21T07:40:23.106Z,16.83
2023-05-21T07:41:23.110Z,16.81
2023-05-21T07:42:23.091Z,16.88
2023-05-21T07:43:23.080Z,16.90
2023-05-21T07:44:23.062Z,16.90
2023-05-21T07:45:23.050Z,16.95
2023-05-21T07:46:23.114Z,17.00
2023-05-21T07:47:23.102Z,17.08
2023-05-21T07:48:23.007Z,17.08
2023-05-21T07:49:23.000Z,17.13
2023-05-21T07:50:22.999Z,17.23
2023-05-21T07:51:22.965Z,17.35
2023-05-21T07:52:22.996Z,17.47
2023-05-21T07:53:22.943Z,17.59
2023-05-21T07:54:22.930Z,17.79
2023-05-21T07:55:22.919Z,17.95
2023-05-21T07:56:22.918Z,18.09
2023-05-21T07:57:22.896Z,18.25
2023-05-21T07:58:22.882Z,18.21
2023-05-21T07:59:22.871Z,18.07
2023-05-21T08:00:22.857Z,18.02
2023-05-21T08:01:22.878Z,18.10
2023-05-21T08:02:22.962Z,18.27
2023-05-21T08:03:22.913Z,18.43
2023-05-21T08:04:23.042Z,18.64
2023-05-21T08:05:22.794Z,18.74
2023-05-21T08:06:22.789Z,18.84
2023-05-21T08:07:22.771Z,18.87
2023-05-21T08:08:22.747Z,18.90
2023-05-21T08:09:22.729Z,18.98
2023-05-21T08:10:22.762Z,18.99
2023-05-21T08:11:22.741Z,19.02
2023-05-21T08:12:22.695Z,18.83
2023-05-21T08:13:22.696Z,18.73
2023-05-21T08:14:22.667Z,18.42
2023-05-21T08:15:22.699Z,18.43
2023-05-21T08:16:22.682Z,18.49
2023-05-21T08:17:22.661Z,18.64
2023-05-21T08:18:22.606Z,18.61
2023-05-21T08:19:22.619Z,18.72
2023-05-21T08:20:22.619Z,18.76
2023-05-21T08:21:22.569Z,18.84
2023-05-21T08:22:22.571Z,18.64
2023-05-21T08:23:22.547Z,18.68
2023-05-21T08:24:22.559Z,18.82
2023-05-21T08:25:22.533Z,18.90
2023-05-21T08:26:22.514Z,18.84
2023-05-21T08:27:22.552Z,18.83
2023-05-21T08:28:22.478Z,18.91
2023-05-21T08:29:22.490Z,18.97
2023-05-21T08:30:22.445Z,18.98
2023-05-21T08:31:22.485Z,18.97
2023-05-21T08:32:22.446Z,18.95
2023-05-21T08:33:22.413Z,18.99
2023-05-21T08:34:22.564Z,18.95
2023-05-21T08:35:22.388Z,18.99
2023-05-21T08:36:22.384Z,19.11
2023-05-21T08:37:22.365Z,19.15
2023-05-21T08:38:22.357Z,19.20
2023-05-21T08:39:22.481Z,19.32
2023-05-21T08:40:22.315Z,19.40
2023-05-21T08:41:22.308Z,19.38
2023-05-21T08:42:32.793Z,19.42
2023-05-21T08:43:23.289Z,19.42
2023-05-21T08:44:22.269Z,19.46
2023-05-21T08:45:22.254Z,19.50
2023-05-21T08:46:22.406Z,19.54
2023-05-21T08:47:22.250Z,19.17
2023-05-21T08:48:22.223Z,18.95
2023-05-21T08:49:22.207Z,18.73
2023-05-21T08:50:22.187Z,18.84
2023-05-21T08:51:22.182Z,19.11
2023-05-21T08:52:22.175Z,19.39
2023-05-21T08:53:28.067Z,19.60
2023-05-21T08:54:23.141Z,19.60
2023-05-21T08:55:22.123Z,19.50
2023-05-21T08:56:22.102Z,19.58
2023-05-21T08:57:22.108Z,19.80
2023-05-21T08:58:22.090Z,19.97
2023-05-21T08:59:22.085Z,20.09
2023-05-21T09:00:22.056Z,20.23
2023-05-21T09:01:24.739Z,20.28
2023-05-21T09:02:22.053Z,20.05
2023-05-21T09:03:22.099Z,19.97
2023-05-21T09:04:22.203Z,20.00
2023-05-21T09:05:21.997Z,20.03
2023-05-21T09:06:21.993Z,19.75
2023-05-21T09:07:21.975Z,19.58
2023-05-21T09:08:21.955Z,19.61
2023-05-21T09:09:21.948Z,19.75
2023-05-21T09:10:21.921Z,19.88
2023-05-21T09:11:21.940Z,19.91
2023-05-21T09:12:21.895Z,19.86
2023-05-21T09:13:21.888Z,19.90
2023-05-21T09:14:21.872Z,19.78
2023-05-21T09:15:21.860Z,19.69
2023-05-21T09:16:21.910Z,19.76
2023-05-21T09:17:21.852Z,19.83
2023-05-21T09:18:21.815Z,19.93
2023-05-21T09:19:21.857Z,20.05
2023-05-21T09:20:21.807Z,20.02
2023-05-21T09:21:21.794Z,19.94
2023-05-21T09:22:21.761Z,20.00
2023-05-21T09:23:21.776Z,19.91
2023-05-21T09:24:21.744Z,19.93
2023-05-21T09:25:21.742Z,20.02
2023-05-21T09:26:21.711Z,20.12
2023-05-21T09:27:21.701Z,20.20
2023-05-21T09:28:21.720Z,20.24
2023-05-21T09:29:21.673Z,20.20
2023-05-21T09:30:26.019Z,20.27
2023-05-21T09:31:22.750Z,20.27
2023-05-21T09:32:21.635Z,20.41
2023-05-21T09:33:21.622Z,20.49
2023-05-21T09:34:21.605Z,20.49
2023-05-21T09:35:21.615Z,20.54
2023-05-21T09:36:21.583Z,20.65
2023-05-21T09:38:21.577Z,20.87
2023-05-21T09:39:21.570Z,21.02
2023-05-21T09:40:21.533Z,21.23
2023-05-21T09:41:22.302Z,21.32
2023-05-21T09:42:21.506Z,21.27
2023-05-21T09:43:21.494Z,21.19
2023-05-21T09:44:21.493Z,21.26
2023-05-21T09:45:21.525Z,21.35
2023-05-21T09:46:21.475Z,21.46
2023-05-21T09:47:21.505Z,21.45
2023-05-21T09:48:21.417Z,21.56
2023-05-21T09:49:21.424Z,21.45
2023-05-21T09:50:21.390Z,21.41
2023-05-21T09:51:21.384Z,21.45
2023-05-21T09:52:21.365Z,21.53
2023-05-21T09:53:21.373Z,21.41
2023-05-21T09:54:21.368Z,21.57
2023-05-21T09:55:21.337Z,21.72
2023-05-21T09:56:21.311Z,21.85
2023-05-21T09:57:21.303Z,21.97
2023-05-21T09:58:21.334Z,22.09
2023-05-21T09:59:21.285Z,22.06
2023-05-21T10:00:21.311Z,21.79
2023-05-21T10:01:21.282Z,21.60
2023-05-21T10:02:21.249Z,21.41
2023-05-21T10:03:21.314Z,21.42
2023-05-21T10:04:21.263Z,21.39
2023-05-21T10:05:21.210Z,21.36
2023-05-21T10:06:21.173Z,21.26
2023-05-21T10:07:21.182Z,21.19
2023-05-21T10:08:21.179Z,21.30
2023-05-21T10:09:21.166Z,21.35
2023-05-21T10:10:21.136Z,21.35
2023-05-21T10:11:21.116Z,21.44
2023-05-21T10:12:21.124Z,21.59
2023-05-21T10:13:21.087Z,21.69
2023-05-21T10:14:21.088Z,21.71
2023-05-21T10:15:21.064Z,21.94
2023-05-21T10:16:21.113Z,21.82
2023-05-21T10:17:21.118Z,21.92
2023-05-21T10:18:21.041Z,22.10
2023-05-21T10:19:21.045Z,22.22
2023-05-21T10:20:21.000Z,22.37
2023-05-21T10:21:20.983Z,22.52
2023-05-21T10:22:20.988Z,22.54
2023-05-21T10:23:20.977Z,22.56
2023-05-21T10:24:20.965Z,22.68
2023-05-21T10:25:20.946Z,22.50
2023-05-21T10:26:20.974Z,22.46
2023-05-21T10:27:20.955Z,22.52
2023-05-21T10:28:20.906Z,22.52
2023-05-21T10:29:20.878Z,22.59
2023-05-21T10:30:20.879Z,22.67
2023-05-21T10:31:20.862Z,22.64
2023-05-21T10:32:20.914Z,22.62
2023-05-21T10:33:20.891Z,22.72
2023-05-21T10:34:20.820Z,22.69
2023-05-21T10:35:20.798Z,22.68
2023-05-21T10:36:20.813Z,22.71
2023-05-21T10:37:20.779Z,22.78
2023-05-21T10:38:20.761Z,22.84
2023-05-21T10:39:20.763Z,22.86
2023-05-21T10:40:20.758Z,22.93
2023-05-21T10:41:20.729Z,23.12
2023-05-21T10:42:20.716Z,23.08
2023-05-21T10:43:20.772Z,23.04
2023-05-21T10:44:20.689Z,23.02
2023-05-21T10:45:20.675Z,23.07
2023-05-21T10:46:20.700Z,22.99
2023-05-21T10:47:20.648Z,22.97
2023-05-21T10:48:20.670Z,23.05
2023-05-21T10:49:20.621Z,23.19
2023-05-21T10:50:20.618Z,23.35
2023-05-21T10:51:20.588Z,23.40
2023-05-21T10:52:20.579Z,23.46
2023-05-21T10:53:20.568Z,23.53
2023-05-21T10:54:20.610Z,23.76
2023-05-21T10:55:20.574Z,23.90
2023-05-21T10:56:20.529Z,23.32
2023-05-21T10:57:20.526Z,22.83
2023-05-21T10:58:20.496Z,22.93
2023-05-21T10:59:20.497Z,23.24
2023-05-21T11:00:20.498Z,23.57
2023-05-21T11:01:20.493Z,23.89
2023-05-21T11:02:20.542Z,24.04
2023-05-21T11:03:20.678Z,24.19
2023-05-21T11:04:20.442Z,24.39
2023-05-21T11:05:20.402Z,24.24
2023-05-21T11:06:20.402Z,24.23
2023-05-21T11:07:20.390Z,24.50
2023-05-21T11:08:20.384Z,24.83
2023-05-21T11:09:20.470Z,24.63
2023-05-21T11:10:20.430Z,24.02
2023-05-21T11:11:20.383Z,23.77
2023-05-21T11:12:20.372Z,23.72
2023-05-21T11:13:20.388Z,23.58
2023-05-21T11:14:20.921Z,23.47
2023-05-21T11:15:20.282Z,23.46
2023-05-21T11:16:20.309Z,23.57
2023-05-21T11:17:20.321Z,23.70
2023-05-21T11:18:20.264Z,23.50
2023-05-21T11:19:20.295Z,23.15
2023-05-21T11:20:20.235Z,23.04
2023-05-21T11:21:20.228Z,22.97
2023-05-21T11:22:20.283Z,22.92
2023-05-21T11:23:20.204Z,22.92
2023-05-21T11:24:20.180Z,22.97
2023-05-21T11:25:20.155Z,22.97
2023-05-21T11:26:20.158Z,22.94
2023-05-21T11:27:20.133Z,22.94
2023-05-21T11:28:20.133Z,22.90
2023-05-21T11:29:20.123Z,22.89
2023-05-21T11:30:20.124Z,22.86
2023-05-21T11:31:20.130Z,22.92
2023-05-21T11:32:20.085Z,23.22
2023-05-21T11:33:20.077Z,23.39
2023-05-21T11:34:20.051Z,23.29
2023-05-21T11:35:20.036Z,23.20
2023-05-21T11:36:20.020Z,23.07
2023-05-21T11:37:20.028Z,22.80
2023-05-21T11:38:19.996Z,22.68
2023-05-21T11:39:20.001Z,22.84
2023-05-21T11:40:19.977Z,23.08
2023-05-21T11:41:19.970Z,23.35
2023-05-21T11:42:19.954Z,23.20
2023-05-21T11:43:19.939Z,22.82
2023-05-21T11:44:19.920Z,22.71
2023-05-21T11:45:19.925Z,22.57
2023-05-21T11:46:19.927Z,22.74
2023-05-21T11:47:19.945Z,22.84
2023-05-21T11:48:19.891Z,22.64
2023-05-21T11:49:19.852Z,22.62
2023-05-21T11:50:19.851Z,22.68
2023-05-21T11:51:19.841Z,22.83
2023-05-21T11:52:19.823Z,23.07
2023-05-21T11:53:19.812Z,23.14
2023-05-21T11:54:19.793Z,22.99
2023-05-21T11:55:19.771Z,22.96
2023-05-21T11:56:19.778Z,22.99
2023-05-21T11:57:19.929Z,23.12
2023-05-21T11:58:19.761Z,23.31
2023-05-21T11:59:19.725Z,23.15
2023-05-21T12:00:19.735Z,23.26
2023-05-21T12:01:19.711Z,23.43
2023-05-21T12:02:19.796Z,23.62
2023-05-21T12:03:19.768Z,23.64
2023-05-21T12:04:19.650Z,23.58
2023-05-21T12:05:19.673Z,23.40
2023-05-21T12:06:19.849Z,23.45
2023-05-21T12:07:19.626Z,23.70
2023-05-21T12:08:19.610Z,23.90
2023-05-21T12:09:19.623Z,23.95
2023-05-21T12:10:19.605Z,23.61
2023-05-21T12:11:19.565Z,23.75
2023-05-21T12:12:19.600Z,23.95
2023-05-21T12:13:19.544Z,23.92
2023-05-21T12:14:19.558Z,24.02
2023-05-21T12:15:19.530Z,24.17
2023-05-21T12:16:19.521Z,24.35
2023-05-21T12:17:19.509Z,24.59
2023-05-21T12:18:19.482Z,24.57
2023-05-21T12:19:19.507Z,24.45
2023-05-21T12:20:19.469Z,24.29
2023-05-21T12:21:19.436Z,24.31
2023-05-21T12:22:19.439Z,24.41
2023-05-21T12:23:19.427Z,24.37
2023-05-21T12:24:19.456Z,24.47
2023-05-21T12:25:19.421Z,24.59
2023-05-21T12:26:19.385Z,24.69
2023-05-21T12:27:19.373Z,24.49
2023-05-21T12:28:19.342Z,24.27
2023-05-21T12:29:19.353Z,23.90
2023-05-21T12:30:19.320Z,23.75
2023-05-21T12:31:19.347Z,23.55
2023-05-21T12:32:19.318Z,23.82
2023-05-21T12:33:19.277Z,23.92
2023-05-21T12:34:19.269Z,23.85
2023-05-21T12:35:19.293Z,24.08
2023-05-21T12:36:19.250Z,24.37
2023-05-21T12:37:19.260Z,24.60
2023-05-21T12:38:19.214Z,24.87
2023-05-21T12:39:19.220Z,25.02
2023-05-21T12:40:19.184Z,25.31
2023-05-21T12:41:19.173Z,25.39
2023-05-21T12:42:19.152Z,25.56
2023-05-21T12:43:19.174Z,25.69
2023-05-21T12:44:19.135Z,25.89
2023-05-21T12:45:19.232Z,25.94
2023-05-21T12:46:19.144Z,25.79
2023-05-21T12:47:19.090Z,25.62
2023-05-21T12:48:19.088Z,25.43
2023-05-21T12:49:19.078Z,25.42
2023-05-21T12:50:19.046Z,25.20
2023-05-21T12:51:19.050Z,24.97
2023-05-21T12:52:19.034Z,24.83
2023-05-21T12:53:19.032Z,24.68
2023-05-21T12:54:18.997Z,24.60
2023-05-21T12:55:18.993Z,24.64
2023-05-21T12:56:18.974Z,24.79
2023-05-21T12:57:18.977Z,24.98
2023-05-21T12:58:18.939Z,25.05
2023-05-21T12:59:18.943Z,24.98
2023-05-21T13:00:18.937Z,24.61
2023-05-21T13:01:18.922Z,24.75
2023-05-21T13:02:18.904Z,24.71
2023-05-21T13:03:18.965Z,24.77
2023-05-21T13:04:18.884Z,24.98
2023-05-21T13:05:18.861Z,25.09
2023-05-21T13:06:18.844Z,25.15
2023-05-21T13:07:18.866Z,24.95
2023-05-21T13:09:22.518Z,24.64
2023-05-21T13:10:22.534Z,24.35
2023-05-21T13:11:22.502Z,24.44
2023-05-21T13:12:22.500Z,24.56
2023-05-21T13:13:22.492Z,24.68
2023-05-21T13:14:22.461Z,25.02
2023-05-21T13:15:22.437Z,25.00
2023-05-21T13:16:22.474Z,25.50
2023-05-21T13:17:22.417Z,25.93
2023-05-21T13:18:22.450Z,26.22
2023-05-21T13:19:22.444Z,26.77
2023-05-21T13:20:22.385Z,27.06
2023-05-21T13:21:22.379Z,27.59
2023-05-21T13:22:22.378Z,28.16
2023-05-21T13:23:22.343Z,28.41
2023-05-21T13:24:22.332Z,28.17
2023-05-21T13:25:22.380Z,28.44
2023-05-21T13:26:22.320Z,28.72
2023-05-21T13:27:22.294Z,28.91
2023-05-21T13:28:22.281Z,28.33
2023-05-21T13:29:22.295Z,28.26
2023-05-21T13:30:22.524Z,28.36
2023-05-21T13:31:22.252Z,28.73
2023-05-21T13:32:22.303Z,28.51
2023-05-21T13:33:22.327Z,27.79
2023-05-21T13:34:22.219Z,27.64
2023-05-21T13:35:22.199Z,27.88
2023-05-21T13:36:22.214Z,28.25
2023-05-21T13:37:22.170Z,28.90
2023-05-21T13:38:22.182Z,29.41
2023-05-21T13:39:22.139Z,29.35
2023-05-21T13:40:22.174Z,29.63
2023-05-21T13:41:22.129Z,30.03
2023-05-21T13:42:22.112Z,30.46
2023-05-21T13:43:22.102Z,30.61
2023-05-21T13:44:22.093Z,29.82
2023-05-21T13:45:22.083Z,28.58
2023-05-21T13:46:22.109Z,27.73
2023-05-21T13:47:22.047Z,27.33
2023-05-21T13:48:22.031Z,27.23
2023-05-21T13:49:22.036Z,27.10
2023-05-21T13:50:22.007Z,27.09
2023-05-21T13:51:37.504Z,26.57
2023-05-21T13:52:22.990Z,26.76
2023-05-21T13:53:21.973Z,26.87
2023-05-21T13:54:21.971Z,26.49
2023-05-21T13:55:21.939Z,26.74
2023-05-21T13:56:21.944Z,27.32
2023-05-21T13:57:21.918Z,27.06
2023-05-21T13:58:21.924Z,26.52
2023-05-21T13:59:21.907Z,26.01
2023-05-21T14:00:21.887Z,25.94
2023-05-21T14:01:21.915Z,26.08
2023-05-21T14:02:21.981Z,26.08
2023-05-21T14:03:21.920Z,25.79
2023-05-21T14:04:21.839Z,25.38
2023-05-21T14:05:21.822Z,25.16
2023-05-21T14:06:21.821Z,25.13
2023-05-21T14:07:21.801Z,25.06
2023-05-21T14:08:21.811Z,24.76
2023-05-21T14:09:21.769Z,24.69
2023-05-21T14:10:21.767Z,24.79
2023-05-21T14:11:21.749Z,25.07
2023-05-21T14:12:21.741Z,25.56
2023-05-21T14:13:21.720Z,25.94
2023-05-21T14:14:21.702Z,26.28
2023-05-21T14:15:21.687Z,26.40
2023-05-21T14:16:21.696Z,26.52
2023-05-21T14:17:21.683Z,26.59
2023-05-21T14:18:21.673Z,26.57
2023-05-21T14:19:21.748Z,26.65
2023-05-21T14:20:21.637Z,26.74
2023-05-21T14:21:21.619Z,26.80
2023-05-21T14:22:21.624Z,26.65
2023-05-21T14:23:21.597Z,26.64
2023-05-21T14:24:21.602Z,26.61
2023-05-21T14:25:21.569Z,26.65
2023-05-21T14:26:21.557Z,26.89
2023-05-21T14:27:21.553Z,27.05
2023-05-21T14:28:21.530Z,27.24
2023-05-21T14:29:21.525Z,27.54
2023-05-21T14:30:21.521Z,27.76
2023-05-21T14:31:21.507Z,27.89
2023-05-21T14:32:21.697Z,28.07
2023-05-21T14:33:21.466Z,28.21
2023-05-21T14:34:21.493Z,28.29
2023-05-21T14:35:21.446Z,28.56
2023-05-21T14:36:21.457Z,28.66
2023-05-21T14:37:21.418Z,28.47
2023-05-21T14:38:21.400Z,28.48
2023-05-21T14:39:21.391Z,28.48
2023-05-21T14:40:21.379Z,28.54
2023-05-21T14:41:21.375Z,28.80
2023-05-21T14:42:21.377Z,29.07
2023-05-21T14:43:21.339Z,29.38
2023-05-21T14:44:22.233Z,29.60
2023-05-21T14:45:21.376Z,29.75
2023-05-21T14:46:21.357Z,30.00
2023-05-21T14:47:21.380Z,30.07
2023-05-21T14:48:21.336Z,30.23
2023-05-21T14:49:21.260Z,30.21
2023-05-21T14:50:21.324Z,30.43
2023-05-21T14:51:21.244Z,30.52
2023-05-21T14:52:21.295Z,30.29
2023-05-21T14:53:21.282Z,29.82
2023-05-21T14:54:21.225Z,29.40
2023-05-21T14:55:21.290Z,28.91
2023-05-21T14:56:21.207Z,28.36
2023-05-21T14:57:21.154Z,27.95
2023-05-21T14:58:21.159Z,27.73
2023-05-21T14:59:21.142Z,27.62
2023-05-21T15:00:21.141Z,27.06
2023-05-21T15:01:21.136Z,26.76
2023-05-21T15:02:21.232Z,26.67
2023-05-21T15:03:21.273Z,26.59
2023-05-21T15:04:21.069Z,26.36
2023-05-21T15:05:21.075Z,26.09
2023-05-21T15:06:21.050Z,26.02
2023-05-21T15:07:21.032Z,25.77
2023-05-21T15:08:21.024Z,25.65
2023-05-21T15:09:21.021Z,25.46
2023-05-21T15:10:21.017Z,25.37
2023-05-21T15:11:20.992Z,25.46
2023-05-21T15:12:20.978Z,25.56
2023-05-21T15:13:20.949Z,25.46
2023-05-21T15:14:20.979Z,25.43
2023-05-21T15:15:20.998Z,25.31
2023-05-21T15:16:20.956Z,25.16
2023-05-21T15:17:20.905Z,24.91
2023-05-21T15:18:20.911Z,24.77
2023-05-21T15:19:20.968Z,24.82
2023-05-21T15:20:21.876Z,24.85
2023-05-21T15:21:20.856Z,24.90
2023-05-21T15:22:20.852Z,25.05
2023-05-21T15:23:20.843Z,25.12
2023-05-21T15:24:20.836Z,24.90
2023-05-21T15:25:20.822Z,24.79
2023-05-21T15:26:20.812Z,24.69
2023-05-21T15:27:20.778Z,24.61
2023-05-21T15:28:20.803Z,24.67
2023-05-21T15:29:20.856Z,24.75
2023-05-21T15:30:20.753Z,24.63
2023-05-21T15:31:20.730Z,24.68
2023-05-21T15:32:20.727Z,24.71
2023-05-21T15:33:20.718Z,24.76
2023-05-21T15:34:20.714Z,24.82
2023-05-21T15:35:20.863Z,24.88
2023-05-21T15:36:20.671Z,24.95
2023-05-21T15:37:20.659Z,25.01
2023-05-21T15:38:20.668Z,25.01
2023-05-21T15:39:20.680Z,25.06
2023-05-21T15:40:20.615Z,25.07
2023-05-21T15:41:20.600Z,25.07
2023-05-21T15:42:20.604Z,25.06
2023-05-21T15:43:20.579Z,24.98
2023-05-21T15:44:20.558Z,24.88
2023-05-21T15:45:20.577Z,24.88
2023-05-21T15:46:20.591Z,24.85
2023-05-21T15:47:20.557Z,24.75
2023-05-21T15:48:20.520Z,24.57
2023-05-21T15:49:20.564Z,24.56
2023-05-21T15:50:20.483Z,24.64
2023-05-21T15:51:20.466Z,24.75
2023-05-21T15:52:20.465Z,24.85
2023-05-21T15:53:20.453Z,24.92
2023-05-21T15:54:20.436Z,25.05
2023-05-21T15:55:20.425Z,25.25
2023-05-21T15:56:20.415Z,25.49
2023-05-21T15:57:20.415Z,25.68
2023-05-21T15:58:20.398Z,25.80
2023-05-21T15:59:20.366Z,25.87
2023-05-21T16:00:20.354Z,25.91
2023-05-21T16:01:20.452Z,26.09
2023-05-21T16:02:20.339Z,26.37
2023-05-21T16:03:20.399Z,26.43
2023-05-21T16:04:20.305Z,26.50
2023-05-21T16:05:20.286Z,26.43
2023-05-21T16:06:20.289Z,26.37
2023-05-21T16:07:20.272Z,26.29
2023-05-21T16:08:20.268Z,26.35
2023-05-21T16:09:20.244Z,26.37
2023-05-21T16:10:20.235Z,26.49
2023-05-21T16:11:20.234Z,26.52
2023-05-21T16:12:20.202Z,26.49
2023-05-21T16:13:20.191Z,26.52
2023-05-21T16:14:20.179Z,26.49
2023-05-21T16:15:20.168Z,26.52
2023-05-21T16:16:22.325Z,26.40
2023-05-21T16:17:20.142Z,26.31
2023-05-21T16:18:20.122Z,26.28
2023-05-21T16:19:20.143Z,26.29
2023-05-21T16:20:20.115Z,26.28
2023-05-21T16:21:20.102Z,26.28
2023-05-21T16:22:20.068Z,26.31
2023-05-21T16:23:20.065Z,26.52
2023-05-21T16:24:20.050Z,26.76
2023-05-21T16:25:20.052Z,26.89
2023-05-21T16:26:20.020Z,27.10
2023-05-21T16:27:20.034Z,27.17
2023-05-21T16:28:20.987Z,27.35
2023-05-21T16:29:19.980Z,27.46
2023-05-21T16:30:19.985Z,27.64
2023-05-21T16:31:19.964Z,27.88
2023-05-21T16:32:20.134Z,27.88
2023-05-21T16:33:19.933Z,27.95
2023-05-21T16:34:19.935Z,27.96
2023-05-21T16:35:19.937Z,27.91
2023-05-21T16:36:19.895Z,27.92
2023-05-21T16:37:19.879Z,27.91
2023-05-21T16:38:19.868Z,27.88
2023-05-21T16:39:19.878Z,27.80
2023-05-21T16:40:19.845Z,27.84
2023-05-21T16:41:19.848Z,27.82
2023-05-21T16:42:19.814Z,27.82
2023-05-21T16:43:19.814Z,27.64
2023-05-21T16:44:19.814Z,27.31
2023-05-21T16:45:19.788Z,27.01
2023-05-21T16:46:19.835Z,26.84
2023-05-21T16:47:19.877Z,26.69
2023-05-21T16:48:19.771Z,26.59
2023-05-21T16:49:19.745Z,26.58
2023-05-21T16:50:19.739Z,26.62
2023-05-21T16:51:19.712Z,26.57
2023-05-21T16:52:19.709Z,26.59
2023-05-21T16:53:19.708Z,26.54
2023-05-21T16:54:19.696Z,26.42
2023-05-21T16:55:19.652Z,26.29
2023-05-21T16:56:19.647Z,26.11
2023-05-21T16:57:19.625Z,26.02
2023-05-21T16:58:19.642Z,25.97
2023-05-21T16:59:19.607Z,25.84
2023-05-21T17:00:19.602Z,25.82
2023-05-21T17:01:19.626Z,25.83
2023-05-21T17:02:19.644Z,25.77
2023-05-21T17:03:19.670Z,25.77
2023-05-21T17:04:19.561Z,25.77
2023-05-21T17:05:19.539Z,25.80
2023-05-21T17:06:19.527Z,25.72
2023-05-21T17:07:19.526Z,25.68
2023-05-21T17:08:19.499Z,25.56
2023-05-21T17:09:19.501Z,25.46